createdAt,value
2023-07-06T00:01:12.835Z,93.70
2023-07-06T00:03:42.604Z,93.94
2023-07-06T00:06:12.646Z,93.94
2023-07-06T00:08:45.144Z,93.92
2023-07-06T00:11:17.385Z,93.67
2023-07-06T00:13:46.457Z,93.28
2023-07-06T00:16:15.001Z,93.58
2023-07-06T00:18:43.401Z,93.60
2023-07-06T00:21:11.633Z,93.85
2023-07-06T00:23:45.303Z,93.34
2023-07-06T00:26:21.891Z,92.87
2023-07-06T00:28:51.092Z,93.04
2023-07-06T00:31:33.204Z,92.74
2023-07-06T00:34:04.838Z,92.83
2023-07-06T00:36:33.206Z,92.64
2023-07-06T00:39:03.666Z,92.92
2023-07-06T00:41:33.923Z,92.95
2023-07-06T00:44:02.647Z,92.59
2023-07-06T00:46:38.276Z,93.05
2023-07-06T00:49:07.289Z,93.48
2023-07-06T00:51:38.638Z,93.55
2023-07-06T00:54:08.370Z,93.98
2023-07-06T00:56:42.877Z,94.16
2023-07-06T00:59:14.052Z,94.40
2023-07-06T01:01:45.948Z,94.69
2023-07-06T01:04:18.281Z,94.89
2023-07-06T01:06:49.015Z,95.35
2023-07-06T01:09:18.901Z,95.33
2023-07-06T01:11:48.923Z,95.38
2023-07-06T01:14:17.298Z,95.56
2023-07-06T01:16:50.167Z,95.97
2023-07-06T01:19:34.052Z,96.02
2023-07-06T01:22:17.156Z,96.12
2023-07-06T01:24:59.211Z,95.96
2023-07-06T01:27:52.255Z,96.30
2023-07-06T01:30:39.643Z,96.24
2023-07-06T01:33:15.465Z,96.41
2023-07-06T01:35:57.899Z,96.68
2023-07-06T01:38:28.724Z,96.96
2023-07-06T01:40:59.199Z,96.90
2023-07-06T01:43:27.609Z,97.25
2023-07-06T01:46:00.525Z,97.19
2023-07-06T01:48:32.568Z,97.41
2023-07-06T01:51:12.387Z,97.82
2023-07-06T01:53:46.495Z,97.83
2023-07-06T01:56:20.272Z,98.14
2023-07-06T01:58:55.502Z,98.12
2023-07-06T02:01:34.472Z,98.32
2023-07-06T02:04:07.652Z,98.32
2023-07-06T02:06:36.955Z,98.22
2023-07-06T02:09:06.435Z,98.44
2023-07-06T02:11:36.343Z,98.44
2023-07-06T02:14:04.694Z,98.70
2023-07-06T02:16:32.967Z,98.82
2023-07-06T02:19:02.414Z,99.01
2023-07-06T02:21:32.537Z,98.93
2023-07-06T02:24:00.806Z,98.78
2023-07-06T02:26:28.983Z,98.65
2023-07-06T02:28:57.173Z,98.81
2023-07-06T02:31:25.287Z,99.27
2023-07-06T02:33:54.163Z,99.09
2023-07-06T02:36:22.650Z,98.83
2023-07-06T02:38:52.196Z,98.85
2023-07-06T02:41:20.540Z,98.93
2023-07-06T02:43:49.155Z,98.63
2023-07-06T02:46:21.276Z,98.40
2023-07-06T02:48:49.503Z,98.06
2023-07-06T02:51:17.736Z,98.14
2023-07-06T02:53:46.580Z,97.91
2023-07-06T02:56:16.128Z,97.84
2023-07-06T02:58:44.286Z,97.90
2023-07-06T03:01:13.516Z,97.33
2023-07-06T03:03:41.791Z,97.31
2023-07-06T03:06:10.147Z,97.23
2023-07-06T03:08:38.343Z,97.12
2023-07-06T03:11:06.493Z,97.38
2023-07-06T03:13:36.090Z,97.11
2023-07-06T03:16:05.642Z,96.74
2023-07-06T03:18:34.074Z,96.66
2023-07-06T03:21:02.871Z,96.23
2023-07-06T03:23:31.064Z,96.04
2023-07-06T03:25:59.505Z,96.24
2023-07-06T03:28:30.234Z,95.88
2023-07-06T03:31:00.273Z,95.91
2023-07-06T03:33:28.560Z,95.95
2023-07-06T03:35:59.894Z,96.12
2023-07-06T03:38:28.447Z,95.77
2023-07-06T03:40:56.621Z,95.50
2023-07-06T03:43:24.976Z,95.88
2023-07-06T03:45:53.279Z,95.78
2023-07-06T03:48:23.964Z,95.98
2023-07-06T03:50:53.790Z,96.06
2023-07-06T03:53:23.116Z,96.12
2023-07-06T03:55:54.778Z,96.26
2023-07-06T03:58:23.389Z,95.90
2023-07-06T04:00:51.718Z,95.61
2023-07-06T04:03:19.944Z,95.45
2023-07-06T04:05:51.168Z,95.37
2023-07-06T04:08:21.052Z,95.23
2023-07-06T04:10:49.341Z,95.42
2023-07-06T04:13:17.711Z,95.28
2023-07-06T04:15:47.750Z,94.71
2023-07-06T04:18:16.884Z,94.56
2023-07-06T04:20:45.226Z,94.29
2023-07-06T04:23:14.881Z,94.57
2023-07-06T04:25:43.272Z,94.96
2023-07-06T04:28:13.164Z,94.52
2023-07-06T04:30:42.985Z,94.33
2023-07-06T04:33:16.075Z,94.17
2023-07-06T04:35:44.221Z,94.16
2023-07-06T04:38:12.657Z,93.75
2023-07-06T04:40:44.202Z,93.97
2023-07-06T04:43:13.269Z,93.58
2023-07-06T04:45:41.448Z,93.12
2023-07-06T04:48:11.856Z,93.09
2023-07-06T04:50:41.644Z,92.24
2023-07-06T04:53:10.785Z,91.70
2023-07-06T04:55:39.016Z,90.41
2023-07-06T04:58:08.543Z,89.71
2023-07-06T05:00:38.966Z,89.61
2023-07-06T05:03:09.104Z,89.39
2023-07-06T05:05:40.205Z,88.81
2023-07-06T05:08:08.758Z,89.18
2023-07-06T05:10:37.011Z,89.57
2023-07-06T05:13:05.888Z,90.18
2023-07-06T05:15:37.522Z,91.05
2023-07-06T05:18:05.884Z,91.67
2023-07-06T05:20:34.338Z,92.30
2023-07-06T05:23:07.058Z,93.05
2023-07-06T05:25:35.405Z,93.53
2023-07-06T05:28:04.032Z,93.40
2023-07-06T05:30:32.200Z,93.92
2023-07-06T05:33:01.820Z,94.24
2023-07-06T05:35:30.639Z,94.32
2023-07-06T05:37:58.795Z,94.40
2023-07-06T05:40:27.065Z,93.99
2023-07-06T05:42:56.230Z,94.26
2023-07-06T05:45:24.383Z,94.26
2023-07-06T05:47:52.655Z,94.65
2023-07-06T05:50:22.400Z,94.67
2023-07-06T05:52:50.898Z,94.85
2023-07-06T05:55:19.170Z,93.83
2023-07-06T05:57:47.907Z,93.37
2023-07-06T06:00:16.717Z,93.40
2023-07-06T06:02:45.966Z,93.63
2023-07-06T06:05:15.258Z,93.66
2023-07-06T06:07:45.985Z,93.53
2023-07-06T06:10:15.548Z,93.72
2023-07-06T06:12:46.151Z,93.65
2023-07-06T06:15:15.837Z,93.37
2023-07-06T06:17:45.837Z,93.15
2023-07-06T06:20:14.210Z,92.82
2023-07-06T06:22:42.470Z,92.44
2023-07-06T06:25:12.322Z,92.69
2023-07-06T06:27:40.710Z,91.90
2023-07-06T06:30:10.327Z,90.49
2023-07-06T06:32:38.868Z,88.92
2023-07-06T06:35:23.806Z,86.68
2023-07-06T06:37:52.624Z,84.30
2023-07-06T06:40:23.660Z,83.54
2023-07-06T06:42:52.018Z,83.44
2023-07-06T06:45:20.981Z,83.73
2023-07-06T06:47:49.529Z,82.35
2023-07-06T06:50:21.128Z,82.16
2023-07-06T06:52:50.747Z,82.45
2023-07-06T06:55:19.281Z,80.52
2023-07-06T06:57:49.800Z,80.78
2023-07-06T07:00:19.338Z,79.52
2023-07-06T07:02:48.259Z,78.16
2023-07-06T07:05:17.948Z,77.61
2023-07-06T07:07:46.353Z,77.81
2023-07-06T07:10:15.177Z,78.83
2023-07-06T07:12:45.159Z,78.83
2023-07-06T07:15:19.923Z,78.16
2023-07-06T07:17:48.542Z,78.47
2023-07-06T07:20:17.112Z,78.80
2023-07-06T07:22:46.069Z,79.44
2023-07-06T07:25:18.683Z,80.03
2023-07-06T07:27:47.686Z,80.43
2023-07-06T07:30:17.980Z,78.39
2023-07-06T07:32:48.722Z,76.93
2023-07-06T07:35:18.030Z,75.69
2023-07-06T07:37:52.255Z,73.38
2023-07-06T07:40:21.427Z,71.68
2023-07-06T07:42:50.529Z,71.35
2023-07-06T07:45:20.876Z,72.99
2023-07-06T07:47:49.626Z,73.75
2023-07-06T07:50:19.145Z,72.72
2023-07-06T07:52:48.097Z,71.81
2023-07-06T07:55:16.304Z,71.58
2023-07-06T07:57:45.725Z,69.71
2023-07-06T08:00:15.939Z,68.72
2023-07-06T08:02:47.120Z,67.19
2023-07-06T08:05:17.677Z,65.69
2023-07-06T08:07:47.028Z,65.90
2023-07-06T08:10:15.777Z,65.16
2023-07-06T08:12:43.933Z,63.63
2023-07-06T08:15:15.028Z,64.92
2023-07-06T08:17:44.933Z,67.37
2023-07-06T08:20:48.675Z,68.92
2023-07-06T08:23:03.965Z,70.99
2023-07-06T08:25:38.495Z,72.92
2023-07-06T08:28:07.682Z,74.67
2023-07-06T08:30:36.188Z,75.71
2023-07-06T08:33:07.424Z,75.67
2023-07-06T08:35:35.666Z,75.40
2023-07-06T08:38:05.727Z,73.73
2023-07-06T08:40:34.566Z,74.09
2023-07-06T08:43:03.763Z,72.90
2023-07-06T08:45:40.037Z,69.78
2023-07-06T08:48:13.915Z,68.36
2023-07-06T08:50:45.921Z,68.46
2023-07-06T08:53:15.877Z,67.71
2023-07-06T08:55:44.455Z,68.76
2023-07-06T08:58:13.782Z,70.18
2023-07-06T09:00:42.025Z,70.40
2023-07-06T09:03:12.903Z,71.07
2023-07-06T09:05:47.703Z,72.06
2023-07-06T09:08:18.323Z,74.06
2023-07-06T09:10:48.731Z,76.81
2023-07-06T09:13:23.570Z,78.71
2023-07-06T09:15:57.667Z,79.04
2023-07-06T09:18:27.482Z,80.95
2023-07-06T09:20:55.853Z,81.97
2023-07-06T09:23:25.581Z,82.28
2023-07-06T09:25:57.549Z,83.50
2023-07-06T09:28:30.391Z,84.62
2023-07-06T09:31:08.751Z,85.30
2023-07-06T09:33:45.085Z,86.18
2023-07-06T09:36:17.277Z,85.32
2023-07-06T09:38:46.659Z,82.47
2023-07-06T09:41:22.327Z,81.13
2023-07-06T09:43:53.859Z,81.13
2023-07-06T09:46:23.537Z,80.68
2023-07-06T09:48:53.672Z,79.61
2023-07-06T09:51:29.668Z,78.59
2023-07-06T09:54:00.705Z,77.35
2023-07-06T09:56:30.467Z,77.53
2023-07-06T09:58:59.415Z,78.55
2023-07-06T10:01:38.715Z,79.94
2023-07-06T10:04:37.821Z,81.54
2023-07-06T10:07:17.129Z,82.79
2023-07-06T10:09:50.180Z,84.94
2023-07-06T10:12:27.892Z,82.71
2023-07-06T10:14:56.228Z,80.60
2023-07-06T10:17:37.045Z,79.48
2023-07-06T10:20:18.962Z,79.47
2023-07-06T10:23:01.581Z,80.29
2023-07-06T10:25:35.315Z,80.92
2023-07-06T10:28:10.121Z,81.54
2023-07-06T10:30:42.291Z,82.32
2023-07-06T10:33:18.451Z,84.48
2023-07-06T10:35:51.526Z,85.07
2023-07-06T10:38:21.014Z,84.02
2023-07-06T10:40:52.491Z,84.50
2023-07-06T10:43:24.759Z,81.58
2023-07-06T10:45:55.914Z,82.24
2023-07-06T10:48:33.534Z,78.15
2023-07-06T10:51:28.914Z,76.46
2023-07-06T10:54:12.498Z,76.21
2023-07-06T10:56:44.585Z,77.39
2023-07-06T10:59:17.514Z,78.05
2023-07-06T11:01:47.361Z,76.37
2023-07-06T11:04:48.911Z,76.89
2023-07-06T11:07:43.819Z,78.19
2023-07-06T11:10:23.358Z,74.38
2023-07-06T11:12:56.671Z,71.18
2023-07-06T11:15:27.840Z,71.42
2023-07-06T11:17:57.464Z,69.07
2023-07-06T11:20:28.032Z,68.60
2023-07-06T11:23:00.378Z,65.68
2023-07-06T11:25:29.430Z,64.99
2023-07-06T11:28:01.103Z,63.72
2023-07-06T11:30:35.362Z,63.07
2023-07-06T11:33:14.524Z,61.38
2023-07-06T11:35:53.728Z,62.20
2023-07-06T11:38:51.416Z,61.90
2023-07-06T11:41:32.375Z,59.86
2023-07-06T11:44:37.270Z,58.58
2023-07-06T11:47:30.947Z,56.49
2023-07-06T11:50:01.321Z,55.39
2023-07-06T11:52:32.904Z,50.77
2023-07-06T11:55:09.549Z,50.10
2023-07-06T11:57:46.771Z,50.30
2023-07-06T12:00:34.407Z,49.87
2023-07-06T12:03:05.278Z,49.27
2023-07-06T12:05:37.291Z,48.68
2023-07-06T12:08:16.663Z,47.46
2023-07-06T12:10:49.643Z,47.21
2023-07-06T12:13:25.313Z,47.62
2023-07-06T12:15:58.198Z,47.26
2023-07-06T12:18:28.213Z,48.00
2023-07-06T12:20:57.694Z,46.58
2023-07-06T12:23:26.098Z,45.30
2023-07-06T12:25:57.635Z,44.55
2023-07-06T12:28:30.787Z,45.11
2023-07-06T12:31:01.351Z,45.62
2023-07-06T12:33:30.943Z,47.06
2023-07-06T12:36:00.018Z,46.40
2023-07-06T12:38:28.999Z,46.50
2023-07-06T12:41:12.672Z,44.40
2023-07-06T12:43:41.029Z,45.22
2023-07-06T12:46:10.945Z,45.55
2023-07-06T12:48:45.374Z,47.64
2023-07-06T12:51:21.050Z,47.69
2023-07-06T12:53:50.401Z,45.89
2023-07-06T12:56:21.813Z,46.23
2023-07-06T12:58:58.690Z,46.21
2023-07-06T13:01:31.147Z,47.70
2023-07-06T13:04:03.195Z,47.08
2023-07-06T13:06:32.414Z,48.54
2023-07-06T13:09:02.799Z,47.80
2023-07-06T13:11:32.354Z,46.16
2023-07-06T13:14:04.635Z,45.65
2023-07-06T13:16:40.919Z,45.59
2023-07-06T13:19:10.983Z,45.28
2023-07-06T13:21:41.967Z,44.41
2023-07-06T13:24:12.772Z,43.53
2023-07-06T13:26:42.451Z,43.70
2023-07-06T13:29:13.353Z,44.41
2023-07-06T13:31:53.249Z,44.25
2023-07-06T13:34:24.231Z,45.14
2023-07-06T13:36:52.523Z,44.67
2023-07-06T13:39:20.887Z,44.25
2023-07-06T13:41:50.951Z,44.60
2023-07-06T13:44:19.393Z,44.28
2023-07-06T13:46:48.293Z,44.32
2023-07-06T13:49:17.426Z,45.00
2023-07-06T13:51:45.752Z,46.89
2023-07-06T13:54:17.525Z,46.11
2023-07-06T13:56:46.611Z,46.60
2023-07-06T13:59:16.218Z,46.40
2023-07-06T14:01:47.161Z,46.00
2023-07-06T14:04:17.951Z,45.98
2023-07-06T14:06:46.151Z,46.93
2023-07-06T14:09:14.336Z,46.71
2023-07-06T14:11:42.507Z,46.18
2023-07-06T14:14:10.688Z,46.02
2023-07-06T14:16:41.044Z,45.22
2023-07-06T14:19:09.311Z,46.05
2023-07-06T14:21:38.820Z,45.23
2023-07-06T14:24:07.812Z,43.80
2023-07-06T14:26:35.972Z,44.43
2023-07-06T14:29:04.359Z,43.21
2023-07-06T14:31:34.978Z,42.51
2023-07-06T14:34:04.861Z,41.58
2023-07-06T14:36:33.030Z,41.77
2023-07-06T14:39:01.438Z,42.81
2023-07-06T14:41:30.157Z,42.48
2023-07-06T14:43:58.308Z,43.61
2023-07-06T14:46:26.565Z,43.29
2023-07-06T14:48:54.891Z,43.40
2023-07-06T14:51:24.445Z,43.75
2023-07-06T14:53:52.876Z,42.99
2023-07-06T14:56:23.917Z,43.04
2023-07-06T14:58:53.717Z,42.70
2023-07-06T15:01:21.986Z,43.55
2023-07-06T15:03:51.020Z,43.78
2023-07-06T15:06:19.306Z,43.32
2023-07-06T15:08:48.970Z,43.81
2023-07-06T15:11:18.167Z,44.08
2023-07-06T15:13:46.571Z,44.73
2023-07-06T15:16:14.835Z,44.24
2023-07-06T15:18:43.746Z,42.97
2023-07-06T15:21:13.528Z,41.89
2023-07-06T15:23:43.247Z,41.90
2023-07-06T15:26:13.030Z,41.40
2023-07-06T15:28:41.322Z,41.45
2023-07-06T15:31:09.816Z,41.24
2023-07-06T15:33:38.579Z,41.60
2023-07-06T15:36:07.144Z,42.22
2023-07-06T15:38:35.333Z,42.44
2023-07-06T15:41:03.508Z,41.78
2023-07-06T15:43:33.096Z,42.98
2023-07-06T15:46:01.463Z,42.62
2023-07-06T15:48:30.261Z,41.66
2023-07-06T15:50:58.787Z,41.32
2023-07-06T15:53:28.455Z,41.51
2023-07-06T15:56:00.312Z,40.78
2023-07-06T15:58:29.272Z,40.32
2023-07-06T16:00:59.083Z,39.23
2023-07-06T16:03:27.659Z,38.55
2023-07-06T16:05:56.087Z,39.10
2023-07-06T16:08:24.415Z,39.40
2023-07-06T16:10:53.271Z,40.08
2023-07-06T16:13:21.608Z,40.20
2023-07-06T16:15:50.021Z,39.85
2023-07-06T16:18:19.615Z,40.60
2023-07-06T16:20:52.623Z,39.59
2023-07-06T16:23:20.818Z,41.11
2023-07-06T16:25:49.033Z,39.94
2023-07-06T16:28:17.275Z,40.48
2023-07-06T16:30:45.452Z,41.13
2023-07-06T16:33:13.761Z,40.81
2023-07-06T16:35:43.427Z,40.78
2023-07-06T16:38:11.644Z,41.02
2023-07-06T16:40:39.822Z,40.44
2023-07-06T16:43:09.288Z,40.15
2023-07-06T16:45:37.494Z,40.04
2023-07-06T16:48:07.760Z,39.68
2023-07-06T16:50:36.304Z,40.82
2023-07-06T16:53:05.967Z,41.59
2023-07-06T16:55:34.146Z,41.35
2023-07-06T16:58:02.880Z,41.24
2023-07-06T17:00:31.060Z,42.36
2023-07-06T17:02:59.367Z,42.49
2023-07-06T17:05:27.658Z,42.34
2023-07-06T17:07:55.787Z,42.35
2023-07-06T17:10:28.003Z,42.96
2023-07-06T17:12:56.453Z,44.04
2023-07-06T17:15:24.910Z,44.47
2023-07-06T17:17:56.860Z,44.57
2023-07-06T17:20:25.468Z,44.74
2023-07-06T17:22:53.683Z,44.98
2023-07-06T17:25:22.089Z,45.44
2023-07-06T17:27:51.777Z,45.63
2023-07-06T17:30:20.059Z,45.94
2023-07-06T17:32:48.722Z,45.80
2023-07-06T17:35:16.983Z,44.52
2023-07-06T17:37:45.442Z,44.18
2023-07-06T17:40:13.872Z,43.33
2023-07-06T17:42:42.197Z,42.53
2023-07-06T17:45:12.497Z,42.97
2023-07-06T17:47:40.736Z,42.43
2023-07-06T17:50:09.913Z,42.60
2023-07-06T17:52:38.074Z,42.73
2023-07-06T17:55:07.165Z,43.34
2023-07-06T17:57:35.366Z,43.32
2023-07-06T18:00:03.680Z,43.94
2023-07-06T18:02:33.284Z,43.66
2023-07-06T18:05:01.548Z,44.71
2023-07-06T18:07:29.714Z,45.14
2023-07-06T18:09:57.894Z,46.43
2023-07-06T18:12:26.054Z,46.33
2023-07-06T18:14:54.265Z,46.12
2023-07-06T18:17:22.555Z,45.63
2023-07-06T18:19:52.435Z,46.83
2023-07-06T18:22:20.806Z,46.74
2023-07-06T18:24:49.136Z,47.63
2023-07-06T18:27:17.344Z,48.13
2023-07-06T18:29:45.527Z,47.36
2023-07-06T18:32:13.711Z,48.12
2023-07-06T18:34:41.855Z,48.94
2023-07-06T18:37:11.462Z,49.71
2023-07-06T18:39:39.800Z,49.71
2023-07-06T18:42:08.504Z,49.85
2023-07-06T18:44:36.634Z,50.40
2023-07-06T18:47:05.393Z,50.59
2023-07-06T18:49:33.561Z,50.35
2023-07-06T18:52:01.733Z,50.85
2023-07-06T18:54:31.244Z,52.21
2023-07-06T18:56:59.485Z,52.14
2023-07-06T18:59:27.588Z,52.69
2023-07-06T19:01:55.835Z,52.87
2023-07-06T19:04:24.248Z,53.14
2023-07-06T19:06:52.410Z,53.35
2023-07-06T19:09:20.663Z,54.20
2023-07-06T19:11:50.240Z,54.39
2023-07-06T19:14:19.951Z,54.68
2023-07-06T19:16:48.493Z,55.20
2023-07-06T19:19:17.053Z,55.21
2023-07-06T19:21:48.725Z,55.28
2023-07-06T19:24:17.407Z,55.89
2023-07-06T19:26:46.265Z,56.69
2023-07-06T19:29:16.088Z,58.21
2023-07-06T19:31:44.294Z,59.38
2023-07-06T19:34:12.475Z,60.27
2023-07-06T19:36:40.700Z,60.42
2023-07-06T19:39:08.874Z,61.25
2023-07-06T19:41:37.081Z,61.92
2023-07-06T19:44:05.375Z,63.28
2023-07-06T19:46:35.139Z,64.67
2023-07-06T19:49:03.470Z,65.58
2023-07-06T19:51:31.683Z,66.09
2023-07-06T19:53:59.837Z,66.23
2023-07-06T19:56:28.458Z,67.27
2023-07-06T19:58:57.240Z,67.62
2023-07-06T20:01:25.536Z,68.70
2023-07-06T20:03:55.083Z,69.58
2023-07-06T20:06:23.298Z,70.18
2023-07-06T20:08:51.454Z,69.84
2023-07-06T20:11:19.608Z,69.49
2023-07-06T20:13:47.798Z,69.39
2023-07-06T20:16:16.240Z,69.78
2023-07-06T20:18:44.372Z,69.84
2023-07-06T20:21:13.923Z,69.92
2023-07-06T20:23:42.147Z,71.53
2023-07-06T20:26:10.820Z,71.43
2023-07-06T20:28:38.955Z,72.22
2023-07-06T20:31:08.489Z,72.02
2023-07-06T20:33:36.621Z,72.53
2023-07-06T20:36:06.138Z,72.89
2023-07-06T20:38:36.177Z,73.01
2023-07-06T20:41:04.577Z,73.36
2023-07-06T20:43:32.861Z,74.25
2023-07-06T20:46:01.099Z,74.94
2023-07-06T20:48:29.267Z,74.48
2023-07-06T20:50:59.431Z,75.12
2023-07-06T20:53:27.986Z,75.17
2023-07-06T20:55:57.602Z,75.85
2023-07-06T20:58:27.064Z,74.44
2023-07-06T21:00:55.274Z,74.29
2023-07-06T21:03:23.376Z,74.96
2023-07-06T21:05:52.061Z,75.10
2023-07-06T21:08:20.266Z,74.20
2023-07-06T21:10:48.429Z,73.85
2023-07-06T21:13:18.048Z,75.32
2023-07-06T21:15:46.387Z,74.96
2023-07-06T21:18:14.584Z,74.45
2023-07-06T21:20:42.775Z,74.60
2023-07-06T21:23:11.056Z,74.54
2023-07-06T21:25:39.396Z,75.96
2023-07-06T21:28:07.578Z,76.57
2023-07-06T21:30:40.752Z,75.53
2023-07-06T21:33:09.081Z,74.92
2023-07-06T21:35:38.450Z,74.72
2023-07-06T21:38:09.039Z,74.12
2023-07-06T21:40:37.323Z,74.15
2023-07-06T21:43:05.618Z,74.98
2023-07-06T21:45:33.838Z,76.20
2023-07-06T21:48:03.523Z,76.33
2023-07-06T21:50:31.692Z,76.37
2023-07-06T21:52:59.903Z,76.60
2023-07-06T21:55:28.055Z,76.41
2023-07-06T21:57:56.170Z,76.64
2023-07-06T22:00:24.391Z,76.74
2023-07-06T22:02:52.877Z,77.32
2023-07-06T22:05:22.669Z,77.01
2023-07-06T22:07:52.097Z,77.10
2023-07-06T22:10:20.397Z,77.63
2023-07-06T22:12:48.641Z,77.60
2023-07-06T22:15:29.457Z,78.51
2023-07-06T22:18:02.535Z,78.11
2023-07-06T22:20:32.573Z,77.61
2023-07-06T22:23:00.845Z,77.25
2023-07-06T22:25:29.247Z,78.46
2023-07-06T22:27:57.370Z,78.69
2023-07-06T22:30:25.623Z,77.55
2023-07-06T22:32:53.838Z,76.99
2023-07-06T22:35:23.746Z,76.73
2023-07-06T22:37:53.710Z,77.30
2023-07-06T22:40:21.915Z,77.82
2023-07-06T22:42:50.860Z,77.79
2023-07-06T22:45:19.045Z,77.91
2023-07-06T22:47:47.361Z,77.92
2023-07-06T22:50:15.578Z,78.00
2023-07-06T22:52:43.786Z,78.12
2023-07-06T22:55:13.539Z,78.26
2023-07-06T22:57:42.047Z,78.98
2023-07-06T23:00:11.227Z,78.75
2023-07-06T23:02:39.969Z,79.17
2023-07-06T23:05:10.869Z,79.11
2023-07-06T23:07:39.121Z,78.96
2023-07-06T23:10:08.516Z,79.60
2023-07-06T23:12:40.529Z,80.01
2023-07-06T23:15:10.664Z,79.95
2023-07-06T23:17:38.923Z,80.23
2023-07-06T23:20:08.730Z,80.49
2023-07-06T23:22:36.966Z,80.76
2023-07-06T23:25:07.051Z,80.62
2023-07-06T23:27:36.250Z,80.90
2023-07-06T23:30:07.930Z,80.92
2023-07-06T23:32:44.447Z,81.01
2023-07-06T23:35:15.848Z,81.00
2023-07-06T23:37:45.938Z,81.10
2023-07-06T23:40:15.101Z,81.27
2023-07-06T23:42:43.325Z,81.64
2023-07-06T23:45:13.172Z,81.26
2023-07-06T23:47:41.378Z,81.57
2023-07-06T23:50:10.525Z,81.83
2023-07-06T23:52:39.060Z,81.70
2023-07-06T23:55:09.370Z,81.98
2023-07-06T23:57:37.863Z,82.17
